createdAt,value
2019-04-30T00:00:39.045Z,8.88
2019-04-30T00:03:22.665Z,6.25
2019-04-30T00:05:53.411Z,6.45
2019-04-30T00:08:17.604Z,6.35
2019-04-30T00:10:45.384Z,5.00
2019-04-30T00:13:17.521Z,5.03
2019-04-30T00:15:40.659Z,7.03
2019-04-30T00:18:08.189Z,7.53
2019-04-30T00:20:38.569Z,9.28
2019-04-30T00:23:05.191Z,7.83
2019-04-30T00:25:35.041Z,8.48
2019-04-30T00:28:05.210Z,6.12
2019-04-30T00:30:31.317Z,10.35
2019-04-30T00:32:57.897Z,5.70
2019-04-30T00:35:25.356Z,8.00
2019-04-30T00:37:57.561Z,5.90
2019-04-30T00:40:21.773Z,5.85
2019-04-30T00:42:49.088Z,6.35
2019-04-30T00:45:15.846Z,6.72
2019-04-30T00:47:46.467Z,7.05
2019-04-30T00:50:12.281Z,6.85
2019-04-30T00:52:38.801Z,6.10
2019-04-30T00:55:09.085Z,5.33
2019-04-30T00:57:37.264Z,5.75
2019-04-30T01:00:11.491Z,5.92
2019-04-30T01:02:41.213Z,5.33
2019-04-30T01:05:10.007Z,7.65
2019-04-30T01:07:39.645Z,6.17
2019-04-30T01:10:06.256Z,6.20
2019-04-30T01:12:36.961Z,6.05
2019-04-30T01:15:06.412Z,7.03
2019-04-30T01:17:31.921Z,6.55
2019-04-30T01:19:59.246Z,5.92
2019-04-30T01:22:29.198Z,6.10
2019-04-30T01:24:55.739Z,5.60
2019-04-30T01:27:22.651Z,6.47
2019-04-30T01:29:49.191Z,5.75
2019-04-30T01:32:19.679Z,8.00
2019-04-30T01:34:50.121Z,6.90
2019-04-30T01:37:12.541Z,8.83
2019-04-30T01:39:39.277Z,6.37
2019-04-30T01:42:07.866Z,5.60
2019-04-30T01:44:34.352Z,6.80
2019-04-30T01:47:01.145Z,5.92
2019-04-30T01:49:30.072Z,7.42
2019-04-30T01:51:57.279Z,5.35
2019-04-30T01:54:24.645Z,7.95
2019-04-30T01:57:11.161Z,6.47
2019-04-30T01:59:56.072Z,8.48
2019-04-30T02:02:24.518Z,6.47
2019-04-30T02:04:51.172Z,10.88
2019-04-30T02:07:19.095Z,9.25
2019-04-30T02:10:06.233Z,11.25
2019-04-30T02:12:32.758Z,7.70
2019-04-30T02:14:59.737Z,7.90
2019-04-30T02:17:29.301Z,6.17
2019-04-30T02:19:56.907Z,5.85
2019-04-30T02:22:24.704Z,5.33
2019-04-30T02:24:51.289Z,5.92
2019-04-30T02:27:19.182Z,6.72
2019-04-30T02:29:46.380Z,6.53
2019-04-30T02:32:14.624Z,7.28
2019-04-30T02:34:44.310Z,9.13
2019-04-30T02:37:13.259Z,5.65
2019-04-30T02:39:40.319Z,6.50
2019-04-30T02:42:09.614Z,6.17
2019-04-30T02:44:40.711Z,6.00
2019-04-30T02:47:11.034Z,6.20
2019-04-30T02:49:39.822Z,6.92
2019-04-30T02:52:09.236Z,7.17
2019-04-30T02:54:39.622Z,7.05
2019-04-30T02:57:07.988Z,6.83
2019-04-30T02:59:36.435Z,7.33
2019-04-30T03:02:02.925Z,5.90
2019-04-30T03:04:29.558Z,7.25
2019-04-30T03:06:56.055Z,7.00
2019-04-30T03:09:22.567Z,5.22
2019-04-30T03:11:50.026Z,7.47
2019-04-30T03:14:17.091Z,5.42
2019-04-30T03:16:52.629Z,4.25
2019-04-30T03:19:21.463Z,5.50
2019-04-30T03:21:50.367Z,6.90
2019-04-30T03:24:16.793Z,3.92
2019-04-30T03:26:43.371Z,7.05
2019-04-30T03:29:11.121Z,8.15
2019-04-30T03:31:44.426Z,8.75
2019-04-30T03:34:16.543Z,5.75
2019-04-30T03:36:35.418Z,7.37
2019-04-30T03:39:02.339Z,5.97
2019-04-30T03:41:33.466Z,9.03
2019-04-30T03:44:16.472Z,3.92
2019-04-30T03:46:29.811Z,4.80
2019-04-30T03:49:10.578Z,5.03
2019-04-30T03:51:40.009Z,6.55
2019-04-30T03:54:05.538Z,7.97
2019-04-30T03:56:32.368Z,9.33
2019-04-30T03:59:00.236Z,6.80
2019-04-30T04:01:34.843Z,10.08
2019-04-30T04:04:13.268Z,9.68
2019-04-30T04:06:41.959Z,10.58
2019-04-30T04:09:25.404Z,11.88
2019-04-30T04:11:51.966Z,11.68
2019-04-30T04:14:19.798Z,6.83
2019-04-30T04:16:46.683Z,7.20
2019-04-30T04:19:13.246Z,5.83
2019-04-30T04:21:39.833Z,7.70
2019-04-30T04:24:06.526Z,15.10
2019-04-30T04:26:33.086Z,20.52
2019-04-30T04:28:59.641Z,8.80
2019-04-30T04:31:29.838Z,10.75
2019-04-30T04:33:59.791Z,12.58
2019-04-30T04:36:25.128Z,11.70
2019-04-30T04:38:51.695Z,9.23
2019-04-30T04:41:19.833Z,6.85
2019-04-30T04:43:46.473Z,6.15
2019-04-30T04:46:12.947Z,8.83
2019-04-30T04:48:40.361Z,9.58
2019-04-30T04:51:10.858Z,16.30
2019-04-30T04:53:35.239Z,11.97
2019-04-30T04:56:02.155Z,8.98
2019-04-30T04:58:30.441Z,17.10
2019-04-30T05:00:59.257Z,6.83
2019-04-30T05:03:29.726Z,9.48
2019-04-30T05:05:59.274Z,9.70
2019-04-30T05:08:24.759Z,10.65
2019-04-30T05:10:51.528Z,8.45
2019-04-30T05:13:19.189Z,7.28
2019-04-30T05:15:45.878Z,12.75
2019-04-30T05:18:12.510Z,9.08
2019-04-30T05:20:41.525Z,8.03
2019-04-30T05:23:07.270Z,10.05
2019-04-30T05:25:33.941Z,10.35
2019-04-30T05:28:00.603Z,9.40
2019-04-30T05:30:29.363Z,17.25
2019-04-30T05:32:55.657Z,18.85
2019-04-30T05:35:22.436Z,30.23
2019-04-30T05:37:49.526Z,24.45
2019-04-30T05:40:18.681Z,21.85
2019-04-30T05:42:44.915Z,25.08
2019-04-30T05:45:12.617Z,15.53
2019-04-30T05:47:39.125Z,19.77
2019-04-30T05:50:06.060Z,18.70
2019-04-30T05:52:32.905Z,11.73
2019-04-30T05:55:00.159Z,11.40
2019-04-30T05:57:26.769Z,14.43
2019-04-30T05:59:53.293Z,15.60
2019-04-30T06:02:19.843Z,12.15
2019-04-30T06:04:48.650Z,13.25
2019-04-30T06:07:15.109Z,9.53
2019-04-30T06:09:43.469Z,12.18
2019-04-30T06:12:14.666Z,12.45
2019-04-30T06:14:49.274Z,12.23
2019-04-30T06:17:16.533Z,10.30
2019-04-30T06:19:43.190Z,9.55
2019-04-30T06:22:10.938Z,11.28
2019-04-30T06:24:39.418Z,10.05
2019-04-30T06:27:06.274Z,8.75
2019-04-30T06:29:33.340Z,9.40
2019-04-30T06:32:00.394Z,8.68
2019-04-30T06:34:29.452Z,8.95
2019-04-30T06:36:57.135Z,8.65
2019-04-30T06:39:23.904Z,32.67
2019-04-30T06:41:51.171Z,15.40
2019-04-30T06:44:19.483Z,11.93
2019-04-30T06:46:46.242Z,10.58
2019-04-30T06:49:13.567Z,7.83
2019-04-30T06:51:40.267Z,8.35
2019-04-30T06:54:08.562Z,6.95
2019-04-30T06:56:35.218Z,7.45
2019-04-30T06:59:01.838Z,8.50
2019-04-30T07:01:29.057Z,23.65
2019-04-30T07:03:58.864Z,10.18
2019-04-30T07:06:29.777Z,9.53
2019-04-30T07:09:01.443Z,8.15
2019-04-30T07:11:49.342Z,11.35
2019-04-30T07:14:16.203Z,11.43
2019-04-30T07:16:42.955Z,13.43
2019-04-30T07:19:09.428Z,12.35
2019-04-30T07:21:41.709Z,9.78
2019-04-30T07:24:04.797Z,11.65
2019-04-30T07:26:31.499Z,13.25
2019-04-30T07:28:59.790Z,11.30
2019-04-30T07:31:26.340Z,14.47
2019-04-30T07:33:54.016Z,14.25
2019-04-30T07:36:20.934Z,14.40
2019-04-30T07:38:54.548Z,17.77
2019-04-30T07:41:15.683Z,14.70
2019-04-30T07:43:42.227Z,14.13
2019-04-30T07:46:09.304Z,10.18
2019-04-30T07:48:36.525Z,14.15
2019-04-30T07:51:03.272Z,15.10
2019-04-30T07:53:30.926Z,13.75
2019-04-30T07:55:59.277Z,8.38
2019-04-30T07:58:25.849Z,11.22
2019-04-30T08:00:56.248Z,7.35
2019-04-30T08:03:22.899Z,6.67
2019-04-30T08:05:51.822Z,5.87
2019-04-30T08:08:25.038Z,9.08
2019-04-30T08:10:46.656Z,8.38
2019-04-30T08:13:15.058Z,7.53
2019-04-30T08:15:42.352Z,7.15
2019-04-30T08:18:09.183Z,5.70
2019-04-30T08:20:35.602Z,7.58
2019-04-30T08:23:13.182Z,6.47
2019-04-30T08:25:30.604Z,5.35
2019-04-30T08:27:59.026Z,5.72
2019-04-30T08:30:27.041Z,5.45
2019-04-30T08:32:53.734Z,5.10
2019-04-30T08:35:20.390Z,5.58
2019-04-30T08:37:47.063Z,4.62
2019-04-30T08:40:13.710Z,2.92
2019-04-30T08:42:40.457Z,2.12
2019-04-30T08:45:09.441Z,7.60
2019-04-30T08:47:36.089Z,4.55
2019-04-30T08:50:04.941Z,6.05
2019-04-30T08:52:31.685Z,7.55
2019-04-30T08:55:10.794Z,7.62
2019-04-30T08:57:26.525Z,7.28
2019-04-30T08:59:52.945Z,7.17
2019-04-30T09:02:19.845Z,2.80
2019-04-30T09:04:49.303Z,3.75
2019-04-30T09:07:17.045Z,5.60
2019-04-30T09:09:44.692Z,6.45
2019-04-30T09:12:13.509Z,3.98
2019-04-30T09:14:40.673Z,5.58
2019-04-30T09:17:09.175Z,5.03
2019-04-30T09:19:35.855Z,5.58
2019-04-30T09:22:02.275Z,6.55
2019-04-30T09:24:30.958Z,4.92
2019-04-30T09:26:59.032Z,6.00
2019-04-30T09:29:25.914Z,4.75
2019-04-30T09:31:52.461Z,5.28
2019-04-30T09:34:21.076Z,5.15
2019-04-30T09:36:48.987Z,5.33
2019-04-30T09:39:15.751Z,7.28
2019-04-30T09:41:42.412Z,7.10
2019-04-30T09:44:10.008Z,6.92
2019-04-30T09:46:38.835Z,8.83
2019-04-30T09:49:05.128Z,5.87
2019-04-30T09:51:32.121Z,9.33
2019-04-30T09:54:02.339Z,5.55
2019-04-30T09:56:29.399Z,5.62
2019-04-30T09:58:56.332Z,5.50
2019-04-30T10:01:23.048Z,7.92
2019-04-30T10:03:50.644Z,9.85
2019-04-30T10:06:18.936Z,7.03
2019-04-30T10:08:48.638Z,8.50
2019-04-30T10:11:16.045Z,7.33
2019-04-30T10:13:42.595Z,7.97
2019-04-30T10:16:14.255Z,7.40
2019-04-30T10:18:40.763Z,7.97
2019-04-30T10:21:09.017Z,6.75
2019-04-30T10:23:35.970Z,6.50
2019-04-30T10:26:02.666Z,8.20
2019-04-30T10:28:34.125Z,6.35
2019-04-30T10:31:05.968Z,5.95
2019-04-30T10:33:32.651Z,5.20
2019-04-30T10:36:00.819Z,5.33
2019-04-30T10:38:29.352Z,5.12
2019-04-30T10:40:58.737Z,5.12
2019-04-30T10:43:29.048Z,6.03
2019-04-30T10:45:58.478Z,4.20
2019-04-30T10:48:24.975Z,4.42
2019-04-30T10:50:52.432Z,8.15
2019-04-30T10:53:19.137Z,8.75
2019-04-30T10:55:45.748Z,7.67
2019-04-30T10:58:12.240Z,4.42
2019-04-30T11:00:40.629Z,6.05
2019-04-30T11:03:19.090Z,3.80
2019-04-30T11:05:39.271Z,4.37
2019-04-30T11:08:05.185Z,4.55
2019-04-30T11:10:32.163Z,2.98
2019-04-30T11:12:58.842Z,4.17
2019-04-30T11:15:26.619Z,5.87
2019-04-30T11:17:53.492Z,3.77
2019-04-30T11:20:22.257Z,5.10
2019-04-30T11:22:48.815Z,5.35
2019-04-30T11:25:15.917Z,8.73
2019-04-30T11:27:43.593Z,6.53
2019-04-30T11:30:23.315Z,5.47
2019-04-30T11:32:41.395Z,4.35
2019-04-30T11:35:08.559Z,11.48
2019-04-30T11:37:35.318Z,13.95
2019-04-30T11:40:04.310Z,6.15
2019-04-30T11:42:32.366Z,5.58
2019-04-30T11:44:59.222Z,3.85
2019-04-30T11:47:28.402Z,4.58
2019-04-30T11:49:55.115Z,14.58
2019-04-30T11:52:22.532Z,7.45
2019-04-30T11:54:54.185Z,5.90
2019-04-30T11:57:18.738Z,5.95
2019-04-30T11:59:45.699Z,5.42
2019-04-30T12:02:14.790Z,5.75
2019-04-30T12:04:41.361Z,5.87
2019-04-30T12:07:18.877Z,5.40
2019-04-30T12:09:53.057Z,9.68
2019-04-30T12:12:19.635Z,9.08
2019-04-30T12:14:49.321Z,5.83
2019-04-30T12:17:15.742Z,4.50
2019-04-30T12:19:42.297Z,5.67
2019-04-30T12:22:08.878Z,6.87
2019-04-30T12:24:35.256Z,4.40
2019-04-30T12:27:01.743Z,5.62
2019-04-30T12:29:29.151Z,4.17
2019-04-30T12:31:55.987Z,5.30
2019-04-30T12:34:22.483Z,5.12
2019-04-30T12:36:49.695Z,4.58
2019-04-30T12:39:16.574Z,4.80
2019-04-30T12:41:43.095Z,4.40
2019-04-30T12:44:09.385Z,6.15
2019-04-30T12:46:35.833Z,4.37
2019-04-30T12:49:04.525Z,6.25
2019-04-30T12:51:45.589Z,5.47
2019-04-30T12:54:15.474Z,6.53
2019-04-30T12:56:53.136Z,5.33
2019-04-30T12:59:19.698Z,9.63
2019-04-30T13:01:47.031Z,9.00
2019-04-30T13:04:13.832Z,11.95
2019-04-30T13:06:40.889Z,8.80
2019-04-30T13:09:10.937Z,7.58
2019-04-30T13:11:40.000Z,11.38
2019-04-30T13:14:06.107Z,11.85
2019-04-30T13:16:32.918Z,10.30
2019-04-30T13:18:59.491Z,9.85
2019-04-30T13:21:25.892Z,11.83
2019-04-30T13:23:52.464Z,9.90
2019-04-30T13:26:18.844Z,11.55
2019-04-30T13:28:59.912Z,9.23
2019-04-30T13:31:29.310Z,10.32
2019-04-30T13:34:14.183Z,9.25
2019-04-30T13:36:40.904Z,8.05
2019-04-30T13:39:12.219Z,11.15
2019-04-30T13:41:46.084Z,9.30
2019-04-30T13:44:14.010Z,10.23
2019-04-30T13:46:40.683Z,9.20
2019-04-30T13:49:07.355Z,9.05
2019-04-30T13:51:34.654Z,14.28
2019-04-30T13:54:01.278Z,9.20
2019-04-30T13:56:28.704Z,10.68
2019-04-30T13:58:55.814Z,11.22
2019-04-30T14:01:22.378Z,11.22
2019-04-30T14:03:56.620Z,9.70
2019-04-30T14:06:28.969Z,10.08
2019-04-30T14:08:59.724Z,11.43
2019-04-30T14:11:26.500Z,11.48
2019-04-30T14:13:54.070Z,10.48
2019-04-30T14:16:20.922Z,11.43
2019-04-30T14:18:48.763Z,17.25
2019-04-30T14:21:15.599Z,16.70
2019-04-30T14:23:42.265Z,12.40
2019-04-30T14:26:09.385Z,13.48
2019-04-30T14:28:36.102Z,15.35
2019-04-30T14:31:03.153Z,16.60
2019-04-30T14:33:30.012Z,13.28
2019-04-30T14:36:00.588Z,13.08
2019-04-30T14:38:26.261Z,13.53
2019-04-30T14:40:53.491Z,12.07
2019-04-30T14:43:26.294Z,16.07
2019-04-30T14:45:55.672Z,12.82
2019-04-30T14:48:25.493Z,13.03
2019-04-30T14:50:52.992Z,12.00
2019-04-30T14:53:24.407Z,15.70
2019-04-30T14:56:11.389Z,14.28
2019-04-30T14:58:51.687Z,12.75
2019-04-30T15:01:26.017Z,13.70
2019-04-30T15:03:52.911Z,16.35
2019-04-30T15:06:19.607Z,11.48
2019-04-30T15:08:46.404Z,12.90
2019-04-30T15:11:13.176Z,12.35
2019-04-30T15:13:39.964Z,14.60
2019-04-30T15:16:06.614Z,11.73
2019-04-30T15:18:33.292Z,12.13
2019-04-30T15:21:01.273Z,16.07
2019-04-30T15:23:56.359Z,14.93
2019-04-30T15:26:22.165Z,13.22
2019-04-30T15:28:43.560Z,13.18
2019-04-30T15:31:10.434Z,13.65
2019-04-30T15:33:38.829Z,12.93
2019-04-30T15:36:06.188Z,12.45
2019-04-30T15:38:51.469Z,14.23
2019-04-30T15:43:45.352Z,12.93
2019-04-30T15:46:12.075Z,14.20
2019-04-30T15:48:38.658Z,13.75
2019-04-30T15:51:05.244Z,13.85
2019-04-30T15:53:31.877Z,15.93
2019-04-30T15:55:58.699Z,15.90
2019-04-30T15:58:30.327Z,13.78
2019-04-30T16:00:59.301Z,15.65
2019-04-30T16:03:33.540Z,16.48
2019-04-30T16:06:00.257Z,14.78
2019-04-30T16:08:34.687Z,20.23
2019-04-30T16:11:20.144Z,16.77
2019-04-30T16:13:58.586Z,14.73
2019-04-30T16:16:27.283Z,16.70
2019-04-30T16:18:54.115Z,17.80
2019-04-30T16:21:20.652Z,16.27
2019-04-30T16:23:48.711Z,16.52
2019-04-30T16:26:15.870Z,16.35
2019-04-30T16:28:42.518Z,15.00
2019-04-30T16:31:09.398Z,14.33
2019-04-30T16:33:36.066Z,14.53
2019-04-30T16:36:03.916Z,16.42
2019-04-30T16:38:30.562Z,16.93
2019-04-30T16:40:58.493Z,18.67
2019-04-30T16:43:25.448Z,15.48
2019-04-30T16:45:52.091Z,14.98
2019-04-30T16:48:19.435Z,16.48
2019-04-30T16:50:48.926Z,13.80
2019-04-30T16:53:15.081Z,15.83
2019-04-30T16:55:41.628Z,12.60
2019-04-30T16:58:08.968Z,14.13
2019-04-30T17:00:36.220Z,14.07
2019-04-30T17:03:05.604Z,12.73
2019-04-30T17:05:34.062Z,12.25
2019-04-30T17:08:02.533Z,10.45
2019-04-30T17:10:44.243Z,12.82
2019-04-30T17:13:12.892Z,11.78
2019-04-30T17:15:41.320Z,14.00
2019-04-30T17:18:11.603Z,10.23
2019-04-30T17:20:38.574Z,13.93
2019-04-30T17:23:04.892Z,17.42
2019-04-30T17:25:31.465Z,16.73
2019-04-30T17:28:01.144Z,11.65
2019-04-30T17:30:26.518Z,13.43
2019-04-30T17:32:53.099Z,12.55
2019-04-30T17:35:19.731Z,13.32
2019-04-30T17:37:46.356Z,14.93
2019-04-30T17:40:14.134Z,12.60
2019-04-30T17:42:40.904Z,19.48
2019-04-30T17:45:11.436Z,17.07
2019-04-30T17:47:38.150Z,20.27
2019-04-30T17:50:05.806Z,19.20
2019-04-30T17:52:32.677Z,18.10
2019-04-30T17:54:59.518Z,16.82
2019-04-30T17:57:32.253Z,17.75
2019-04-30T17:59:56.017Z,21.68
2019-04-30T18:02:24.535Z,24.75
2019-04-30T18:04:51.244Z,23.52
2019-04-30T18:07:19.789Z,26.80
2019-04-30T18:09:48.717Z,28.12
2019-04-30T18:12:16.008Z,23.67
2019-04-30T18:14:42.979Z,15.78
2019-04-30T18:17:09.817Z,15.32
2019-04-30T18:19:38.687Z,20.70
2019-04-30T18:22:16.168Z,15.03
2019-04-30T18:24:45.204Z,19.27
2019-04-30T18:27:13.744Z,15.35
2019-04-30T18:29:40.383Z,14.05
2019-04-30T18:32:06.891Z,12.75
2019-04-30T18:34:33.503Z,12.30
2019-04-30T18:37:00.065Z,9.85
2019-04-30T18:39:29.808Z,9.10
2019-04-30T18:41:57.643Z,8.78
2019-04-30T18:44:24.239Z,11.00
2019-04-30T18:46:50.843Z,9.28
2019-04-30T18:49:18.746Z,7.60
2019-04-30T18:51:45.844Z,7.47
2019-04-30T18:54:12.464Z,6.85
2019-04-30T18:56:39.126Z,7.75
2019-04-30T18:59:05.869Z,8.10
2019-04-30T19:01:32.919Z,10.30
2019-04-30T19:04:01.191Z,6.95
2019-04-30T19:06:29.475Z,13.43
2019-04-30T19:09:16.019Z,16.93
2019-04-30T19:11:44.393Z,9.85
2019-04-30T19:14:31.319Z,12.80
2019-04-30T19:17:02.744Z,8.55
2019-04-30T19:19:32.537Z,13.68
2019-04-30T19:22:12.007Z,16.65
2019-04-30T19:24:52.194Z,9.23
2019-04-30T19:27:08.708Z,6.33
2019-04-30T19:29:35.675Z,5.80
2019-04-30T19:32:02.421Z,8.10
2019-04-30T19:34:31.464Z,5.47
2019-04-30T19:36:58.601Z,4.40
2019-04-30T19:39:25.514Z,6.22
2019-04-30T19:41:51.956Z,7.35
2019-04-30T19:44:20.637Z,8.05
2019-04-30T19:46:48.754Z,9.15
2019-04-30T19:49:15.415Z,10.98
2019-04-30T19:51:41.893Z,10.65
2019-04-30T19:54:08.684Z,12.98
2019-04-30T19:56:35.879Z,11.12
2019-04-30T19:59:05.460Z,10.78
2019-04-30T20:01:31.087Z,9.53
2019-04-30T20:03:58.777Z,11.93
2019-04-30T20:06:25.327Z,12.25
2019-04-30T20:08:52.001Z,9.63
2019-04-30T20:11:18.494Z,11.53
2019-04-30T20:13:45.246Z,11.95
2019-04-30T20:16:12.096Z,13.53
2019-04-30T20:18:39.168Z,11.08
2019-04-30T20:21:09.222Z,11.08
2019-04-30T20:23:37.071Z,11.60
2019-04-30T20:26:03.774Z,15.20
2019-04-30T20:28:39.099Z,13.45
2019-04-30T20:31:00.498Z,12.47
2019-04-30T20:33:28.897Z,11.83
2019-04-30T20:35:55.266Z,10.55
2019-04-30T20:38:32.754Z,10.78
2019-04-30T20:41:02.916Z,15.38
2019-04-30T20:43:28.619Z,11.60
2019-04-30T20:45:55.435Z,11.03
2019-04-30T20:48:22.120Z,12.28
2019-04-30T20:50:48.880Z,11.90
2019-04-30T20:53:15.436Z,11.48
2019-04-30T20:55:41.956Z,14.10
2019-04-30T20:58:09.720Z,13.10
2019-04-30T21:00:36.332Z,9.93
2019-04-30T21:03:02.862Z,13.08
2019-04-30T21:05:30.301Z,12.37
2019-04-30T21:07:56.900Z,14.23
2019-04-30T21:10:23.569Z,13.20
2019-04-30T21:12:50.095Z,13.32
2019-04-30T21:15:16.857Z,11.55
2019-04-30T21:17:43.413Z,13.75
2019-04-30T21:20:10.907Z,14.70
2019-04-30T21:22:38.882Z,12.90
2019-04-30T21:25:09.005Z,12.90
2019-04-30T21:27:35.812Z,11.18
2019-04-30T21:30:07.135Z,12.25
2019-04-30T21:32:52.101Z,10.18
2019-04-30T21:35:23.421Z,15.93
2019-04-30T21:37:49.967Z,11.97
2019-04-30T21:40:16.553Z,10.75
2019-04-30T21:42:44.486Z,9.73
2019-04-30T21:45:11.000Z,10.78
2019-04-30T21:47:37.500Z,11.40
2019-04-30T21:50:04.781Z,8.83
2019-04-30T21:52:31.377Z,13.75
2019-04-30T21:54:59.605Z,9.60
2019-04-30T21:57:26.235Z,15.83
2019-04-30T21:59:52.901Z,9.83
2019-04-30T22:02:19.853Z,10.60
2019-04-30T22:04:46.558Z,9.95
2019-04-30T22:07:13.451Z,9.78
2019-04-30T22:09:40.285Z,9.33
2019-04-30T22:12:09.081Z,11.20
2019-04-30T22:18:39.079Z,9.95
2019-04-30T22:21:07.854Z,9.13
2019-04-30T22:23:40.900Z,7.75
2019-04-30T22:28:41.272Z,7.00
2019-04-30T22:31:11.651Z,6.83
2019-04-30T22:33:41.218Z,7.80
2019-04-30T22:36:10.883Z,6.70
2019-04-30T22:38:51.645Z,8.75
2019-04-30T22:41:22.673Z,9.10
2019-04-30T22:43:53.387Z,6.55
2019-04-30T22:46:22.830Z,8.28
2019-04-30T22:48:55.572Z,7.78
2019-04-30T22:51:26.003Z,6.83
2019-04-30T22:53:59.491Z,7.35
2019-04-30T22:56:26.380Z,6.17
2019-04-30T22:58:54.840Z,5.67
2019-04-30T23:01:39.450Z,6.25
2019-04-30T23:04:30.093Z,9.35
2019-04-30T23:07:09.752Z,6.33
2019-04-30T23:09:29.465Z,4.97
2019-04-30T23:11:56.044Z,6.47
2019-04-30T23:14:22.760Z,7.15
2019-04-30T23:16:50.446Z,5.30
2019-04-30T23:19:17.985Z,6.45
2019-04-30T23:21:46.139Z,5.97
2019-04-30T23:24:16.185Z,12.53
2019-04-30T23:26:45.652Z,6.53
2019-04-30T23:29:13.972Z,6.58
2019-04-30T23:31:44.229Z,6.05
2019-04-30T23:34:17.719Z,4.20
2019-04-30T23:36:48.917Z,6.08
2019-04-30T23:39:17.525Z,7.85
2019-04-30T23:41:50.593Z,6.55
2019-04-30T23:44:17.742Z,4.20
2019-04-30T23:46:47.169Z,5.83
2019-04-30T23:49:14.716Z,5.25
2019-04-30T23:51:42.839Z,5.50
2019-04-30T23:54:11.268Z,4.28
2019-04-30T23:56:37.757Z,5.92
2019-04-30T23:59:04.281Z,5.20
